Etusivu
METAR-TAF:

METAR-TAF

Lentoasemat :

Houston, Texas, Yhdysvallat

Leveyspiiri: 29-48-18N, Pituuspiiri: 095-53-52W, korkeus merenpinnasta: 51 m

Tämänhetkinen sää

Tämä raportti tehtiin 21 minuuttia sitten, kello 16.35 UTC
Tuuli 12 kn etelästä
Lämpötila 31°C
Kosteus 75%
Ilmanpaine 1010 hPa
Näkyvyys: 6.4 km
Hajonneita pilviä 2500 ft:n korkeudessa
Hajonneita pilviä 3300 ft:n korkeudessa
usvaa

METAR: KTME 241635Z AUTO 19012KT 4SM HZ BKN025 BKN033 31/26 A2983 RMK AO2

Aika: 10:56 (16:56 UTC)


TAF: puuttuu

Säähavainnot ja -ennusteet yli 4000 lentoasemalta (METAR- ja TAF-raportit).

Käytössä olevat sääasemat on merkitty karttaan keltaisilla ja punaisilla pisteillä.

Aseta hiiri pisteen päälle nähdäksesi sääaseman nimen.

Klikkaa sitten nähdäksesi säähavainnot ja -ennusteet.

Kartan vaihtaminen: klikkaa mustalla rastilla varustettuja vihreitä pisteitä, niin voit zoomata sisään; viivalla varustettua vihreää pistettä, niin voit zoomata ulos tai vihreitä nuolia, niin pääset viereisille kartoille.


METAR-TAF: